createdAt,value
2023-02-17T00:02:18.125Z,18.47
2023-02-17T00:04:45.815Z,15.10
2023-02-17T00:07:13.828Z,16.60
2023-02-17T00:09:41.490Z,15.83
2023-02-17T00:12:09.263Z,16.17
2023-02-17T00:14:39.824Z,17.13
2023-02-17T00:17:08.971Z,14.97
2023-02-17T00:19:37.943Z,15.17
2023-02-17T00:22:05.800Z,15.93
2023-02-17T00:24:33.878Z,18.27
2023-02-17T00:27:01.700Z,16.80
2023-02-17T00:29:29.389Z,16.07
2023-02-17T00:31:59.148Z,16.30
2023-02-17T00:34:28.029Z,14.60
2023-02-17T00:36:55.989Z,15.53
2023-02-17T00:39:23.725Z,14.77
2023-02-17T00:41:51.587Z,17.37
2023-02-17T00:44:20.095Z,16.33
2023-02-17T00:46:48.016Z,15.73
2023-02-17T00:49:18.871Z,17.03
2023-02-17T00:51:46.821Z,14.80
2023-02-17T00:54:14.797Z,17.23
2023-02-17T00:56:42.480Z,15.17
2023-02-17T00:59:10.424Z,13.73
2023-02-17T01:01:38.373Z,15.17
2023-02-17T01:04:06.280Z,14.67
2023-02-17T01:06:36.193Z,16.40
2023-02-17T01:09:04.200Z,13.47
2023-02-17T01:11:32.615Z,14.63
2023-02-17T01:14:00.842Z,14.00
2023-02-17T01:16:29.945Z,15.47
2023-02-17T01:18:57.783Z,15.07
2023-02-17T01:21:26.801Z,14.83
2023-02-17T01:23:56.602Z,15.47
2023-02-17T01:26:25.536Z,15.80
2023-02-17T01:28:53.533Z,14.90
2023-02-17T01:31:22.014Z,15.33
2023-02-17T01:33:50.262Z,15.00
2023-02-17T01:36:19.211Z,15.80
2023-02-17T01:38:47.388Z,14.87
2023-02-17T01:41:17.679Z,14.80
2023-02-17T01:44:06.669Z,16.33
2023-02-17T01:46:34.517Z,15.43
2023-02-17T01:49:02.563Z,15.43
2023-02-17T01:51:32.129Z,14.23
2023-02-17T01:54:02.426Z,14.67
2023-02-17T01:56:31.688Z,13.90
2023-02-17T01:59:01.365Z,14.97
2023-02-17T02:01:29.068Z,14.83
2023-02-17T02:03:56.954Z,17.40
2023-02-17T02:06:25.730Z,14.83
2023-02-17T02:08:55.493Z,14.80
2023-02-17T02:11:23.255Z,15.17
2023-02-17T02:13:52.430Z,15.17
2023-02-17T02:16:21.585Z,14.00
2023-02-17T02:18:53.865Z,13.77
2023-02-17T02:21:57.416Z,14.50
2023-02-17T02:24:32.555Z,14.67
2023-02-17T02:27:26.599Z,13.73
2023-02-17T02:30:20.916Z,13.47
2023-02-17T02:32:54.764Z,13.47
2023-02-17T02:35:24.205Z,13.07
2023-02-17T02:37:54.522Z,13.30
2023-02-17T02:40:23.896Z,14.33
2023-02-17T02:42:51.724Z,13.17
2023-02-17T02:45:19.542Z,14.83
2023-02-17T02:47:49.333Z,13.50
2023-02-17T02:50:20.670Z,13.53
2023-02-17T02:52:57.463Z,13.00
2023-02-17T02:55:28.836Z,13.53
2023-02-17T02:57:59.549Z,12.87
2023-02-17T03:00:31.080Z,12.67
2023-02-17T03:03:00.115Z,13.40
2023-02-17T03:05:34.115Z,12.40
2023-02-17T03:08:03.929Z,11.87
2023-02-17T03:10:31.789Z,12.17
2023-02-17T03:12:59.421Z,11.83
2023-02-17T03:15:28.792Z,12.17
2023-02-17T03:17:57.738Z,11.33
2023-02-17T03:20:25.655Z,11.47
2023-02-17T03:22:54.739Z,11.23
2023-02-17T03:25:22.611Z,10.67
2023-02-17T03:27:50.263Z,12.20
2023-02-17T03:30:18.262Z,11.60
2023-02-17T03:32:47.019Z,11.87
2023-02-17T03:35:15.047Z,11.83
2023-02-17T03:37:42.696Z,10.87
2023-02-17T03:40:12.376Z,13.10
2023-02-17T03:42:40.053Z,11.73
2023-02-17T03:45:09.472Z,12.30
2023-02-17T03:47:37.244Z,11.63
2023-02-17T03:50:05.715Z,12.27
2023-02-17T03:52:33.480Z,11.43
2023-02-17T03:55:01.172Z,12.33
2023-02-17T03:57:31.813Z,11.57
2023-02-17T03:59:59.484Z,12.13
2023-02-17T04:02:27.365Z,11.37
2023-02-17T04:04:55.023Z,11.47
2023-02-17T04:07:22.869Z,10.50
2023-02-17T04:09:50.534Z,12.33
2023-02-17T04:12:18.369Z,11.70
2023-02-17T04:14:47.356Z,12.17
2023-02-17T04:17:15.104Z,11.70
2023-02-17T04:19:42.748Z,12.37
2023-02-17T04:22:10.566Z,11.70
2023-02-17T04:24:38.268Z,10.80
2023-02-17T04:27:06.241Z,12.63
2023-02-17T04:29:34.151Z,12.83
2023-02-17T04:32:03.282Z,11.23
2023-02-17T04:34:30.976Z,11.13
2023-02-17T04:36:58.769Z,12.03
2023-02-17T04:39:26.466Z,11.60
2023-02-17T04:41:54.327Z,11.37
2023-02-17T04:44:22.029Z,12.10
2023-02-17T04:46:49.854Z,11.97
2023-02-17T04:49:18.911Z,11.43
2023-02-17T04:54:14.568Z,11.53
2023-02-17T04:56:42.461Z,11.10
2023-02-17T04:59:10.263Z,11.57
2023-02-17T05:01:37.932Z,11.57
2023-02-17T05:04:05.952Z,11.33
2023-02-17T05:06:34.961Z,11.20
2023-02-17T05:09:02.729Z,10.73
2023-02-17T05:11:31.499Z,10.77
2023-02-17T05:13:59.295Z,11.17
2023-02-17T05:16:27.046Z,10.40
2023-02-17T05:18:54.844Z,11.07
2023-02-17T05:21:22.553Z,11.10
2023-02-17T05:23:51.739Z,10.67
2023-02-17T05:26:19.383Z,10.47
2023-02-17T05:28:47.311Z,10.03
2023-02-17T05:31:15.028Z,9.97
2023-02-17T05:33:43.869Z,10.27
2023-02-17T05:36:12.132Z,9.83
2023-02-17T05:38:40.028Z,10.70
2023-02-17T05:41:09.080Z,11.17
2023-02-17T05:43:36.870Z,10.37
2023-02-17T05:46:05.354Z,9.70
2023-02-17T05:48:33.348Z,10.47
2023-02-17T05:51:01.057Z,10.60
2023-02-17T05:53:28.791Z,10.40
2023-02-17T05:55:56.616Z,10.83
2023-02-17T05:58:27.141Z,10.57
2023-02-17T06:00:54.909Z,9.67
2023-02-17T06:03:22.622Z,10.03
2023-02-17T06:05:50.454Z,9.77
2023-02-17T06:08:18.243Z,11.30
2023-02-17T06:10:46.057Z,10.60
2023-02-17T06:13:13.689Z,10.53
2023-02-17T06:15:43.521Z,10.50
2023-02-17T06:18:11.271Z,10.03
2023-02-17T06:20:39.082Z,9.67
2023-02-17T06:23:06.729Z,10.47
2023-02-17T06:25:34.513Z,11.17
2023-02-17T06:28:02.362Z,10.77
2023-02-17T06:30:30.239Z,10.40
2023-02-17T06:32:59.320Z,10.17
2023-02-17T06:35:27.182Z,10.77
2023-02-17T06:37:54.901Z,12.13
2023-02-17T06:40:23.020Z,10.73
2023-02-17T06:42:50.650Z,9.97
2023-02-17T06:45:18.576Z,10.00
2023-02-17T06:47:46.378Z,10.03
2023-02-17T06:50:15.953Z,9.80
2023-02-17T06:52:43.618Z,10.03
2023-02-17T06:55:11.895Z,10.97
2023-02-17T06:57:39.514Z,10.70
2023-02-17T07:00:08.542Z,10.60
2023-02-17T07:02:38.644Z,11.70
2023-02-17T07:05:07.228Z,11.13
2023-02-17T07:07:36.239Z,11.27
2023-02-17T07:10:04.383Z,10.80
2023-02-17T07:12:31.992Z,10.10
2023-02-17T07:14:59.933Z,10.70
2023-02-17T07:17:27.599Z,10.63
2023-02-17T07:19:55.312Z,11.60
2023-02-17T07:22:25.398Z,10.13
2023-02-17T07:24:54.457Z,10.87
2023-02-17T07:27:22.111Z,10.67
2023-02-17T07:29:49.825Z,11.07
2023-02-17T07:32:17.544Z,12.93
2023-02-17T07:34:45.318Z,9.90
2023-02-17T07:37:13.012Z,10.47
2023-02-17T07:39:42.856Z,10.43
2023-02-17T07:42:12.082Z,10.20
2023-02-17T07:44:39.889Z,10.60
2023-02-17T07:47:07.613Z,9.03
2023-02-17T07:49:35.428Z,10.00
2023-02-17T07:52:05.203Z,9.20
2023-02-17T07:54:33.277Z,10.53
2023-02-17T07:57:02.988Z,10.73
2023-02-17T07:59:32.060Z,10.40
2023-02-17T08:01:59.870Z,11.40
2023-02-17T08:04:28.801Z,9.83
2023-02-17T08:06:56.481Z,10.67
2023-02-17T08:09:41.587Z,9.40
2023-02-17T08:12:28.404Z,10.73
2023-02-17T08:14:59.134Z,10.50
2023-02-17T08:17:27.891Z,9.20
2023-02-17T08:19:55.582Z,9.27
2023-02-17T08:22:24.069Z,9.70
2023-02-17T08:24:51.805Z,9.50
2023-02-17T08:27:19.838Z,8.63
2023-02-17T08:29:47.656Z,8.80
2023-02-17T08:32:17.060Z,8.57
2023-02-17T08:34:44.991Z,9.50
2023-02-17T08:37:12.712Z,9.17
2023-02-17T08:39:40.436Z,9.87
2023-02-17T08:42:12.120Z,9.80
2023-02-17T08:44:40.135Z,9.07
2023-02-17T08:47:08.769Z,9.30
2023-02-17T08:49:37.853Z,9.80
2023-02-17T08:52:05.871Z,8.33
2023-02-17T08:54:33.903Z,9.40
2023-02-17T08:57:01.613Z,8.57
2023-02-17T08:59:29.337Z,9.00
2023-02-17T09:01:57.042Z,7.83
2023-02-17T09:04:24.899Z,8.03
2023-02-17T09:06:55.937Z,9.00
2023-02-17T09:09:26.712Z,7.47
2023-02-17T09:11:55.222Z,9.27
2023-02-17T09:14:24.933Z,7.63
2023-02-17T09:16:53.305Z,7.57
2023-02-17T09:19:21.216Z,7.60
2023-02-17T09:21:49.390Z,6.77
2023-02-17T09:24:20.523Z,6.80
2023-02-17T09:26:48.224Z,7.03
2023-02-17T09:29:15.970Z,8.67
2023-02-17T09:31:45.585Z,7.23
2023-02-17T09:34:13.362Z,6.70
2023-02-17T09:36:41.751Z,6.53
2023-02-17T09:39:12.385Z,7.50
2023-02-17T09:41:43.448Z,7.57
2023-02-17T09:44:17.886Z,6.83
2023-02-17T09:46:59.737Z,7.13
2023-02-17T09:49:31.577Z,7.43
2023-02-17T09:52:01.108Z,8.23
2023-02-17T09:54:30.767Z,6.50
2023-02-17T09:56:59.932Z,6.83
2023-02-17T09:59:29.242Z,6.97
2023-02-17T10:01:57.104Z,6.47
2023-02-17T10:04:26.853Z,6.23
2023-02-17T10:06:55.880Z,6.67
2023-02-17T10:09:25.270Z,6.83
2023-02-17T10:11:54.532Z,6.77
2023-02-17T10:14:27.322Z,6.13
2023-02-17T10:16:57.700Z,6.30
2023-02-17T10:19:28.117Z,6.53
2023-02-17T10:21:59.830Z,7.33
2023-02-17T10:24:27.649Z,5.97
2023-02-17T10:27:01.741Z,5.93
2023-02-17T10:29:38.190Z,6.70
2023-02-17T10:32:14.847Z,6.50
2023-02-17T10:34:45.344Z,6.37
2023-02-17T10:37:14.912Z,5.80
2023-02-17T10:39:47.727Z,6.27
2023-02-17T10:42:18.774Z,7.07
2023-02-17T10:44:47.824Z,6.17
2023-02-17T10:47:15.920Z,6.60
2023-02-17T10:49:46.436Z,6.33
2023-02-17T10:52:15.370Z,6.20
2023-02-17T10:54:44.859Z,5.80
2023-02-17T10:57:13.536Z,5.63
2023-02-17T10:59:46.966Z,5.97
2023-02-17T11:02:20.725Z,5.40
2023-02-17T11:04:49.894Z,10.80
2023-02-17T11:07:18.401Z,5.60
2023-02-17T11:09:49.780Z,6.23
2023-02-17T11:12:19.104Z,5.93
2023-02-17T11:14:47.606Z,5.67
2023-02-17T11:17:16.162Z,5.00
2023-02-17T11:19:55.385Z,6.73
2023-02-17T11:22:33.472Z,5.80
2023-02-17T11:25:01.763Z,5.00
2023-02-17T11:27:29.541Z,7.17
2023-02-17T11:30:06.926Z,6.13
2023-02-17T11:32:36.049Z,4.90
2023-02-17T11:35:06.443Z,14.10
2023-02-17T11:37:34.714Z,5.83
2023-02-17T11:40:02.427Z,8.23
2023-02-17T11:42:30.808Z,8.23
2023-02-17T11:44:59.361Z,5.03
2023-02-17T11:47:34.777Z,6.77
2023-02-17T11:50:26.105Z,5.73
2023-02-17T11:53:05.254Z,4.87
2023-02-17T11:55:37.020Z,4.77
2023-02-17T11:58:13.518Z,5.63
2023-02-17T12:00:43.448Z,5.97
2023-02-17T12:03:38.500Z,4.73
2023-02-17T12:06:10.997Z,5.50
2023-02-17T12:08:46.420Z,7.93
2023-02-17T12:11:19.736Z,5.77
2023-02-17T12:13:53.695Z,5.60
2023-02-17T12:16:28.574Z,4.80
2023-02-17T12:19:02.328Z,4.90
2023-02-17T12:21:41.510Z,4.33
2023-02-17T12:24:20.640Z,4.17
2023-02-17T12:26:49.180Z,5.17
2023-02-17T12:29:26.470Z,6.13
2023-02-17T12:32:09.205Z,5.40
2023-02-17T12:34:41.603Z,5.30
2023-02-17T12:37:15.627Z,4.77
2023-02-17T12:39:44.202Z,7.93
2023-02-17T12:42:14.595Z,6.53
2023-02-17T12:44:43.572Z,4.17
2023-02-17T12:47:13.183Z,7.43
2023-02-17T12:49:43.242Z,4.63
2023-02-17T12:52:15.459Z,4.30
2023-02-17T12:54:44.511Z,5.27
2023-02-17T12:57:17.072Z,5.13
2023-02-17T12:59:45.227Z,4.10
2023-02-17T13:02:13.759Z,4.50
2023-02-17T13:04:43.243Z,6.50
2023-02-17T13:07:41.536Z,8.20
2023-02-17T13:10:19.724Z,5.47
2023-02-17T13:12:58.493Z,6.37
2023-02-17T13:15:39.446Z,5.03
2023-02-17T13:18:13.777Z,3.90
2023-02-17T13:20:45.758Z,4.57
2023-02-17T13:23:28.517Z,3.83
2023-02-17T13:26:17.817Z,5.90
2023-02-17T13:28:46.054Z,8.10
2023-02-17T13:31:16.429Z,4.47
2023-02-17T13:33:46.835Z,3.40
2023-02-17T13:36:17.792Z,4.13
2023-02-17T13:38:56.742Z,3.73
2023-02-17T13:41:24.639Z,3.43
2023-02-17T13:43:52.378Z,12.13
2023-02-17T13:46:24.241Z,3.97
2023-02-17T13:49:03.092Z,3.47
2023-02-17T13:51:31.720Z,3.47
2023-02-17T13:54:05.990Z,4.30
2023-02-17T13:56:33.784Z,3.57
2023-02-17T13:59:08.286Z,3.90
2023-02-17T14:01:37.211Z,3.47
2023-02-17T14:04:06.392Z,4.70
2023-02-17T14:06:37.062Z,4.73
2023-02-17T14:09:14.817Z,3.90
2023-02-17T14:11:42.513Z,4.50
2023-02-17T14:14:11.882Z,5.17
2023-02-17T14:16:41.238Z,4.43
2023-02-17T14:19:13.111Z,4.60
2023-02-17T14:21:42.830Z,3.97
2023-02-17T14:24:29.670Z,3.80
2023-02-17T14:27:03.673Z,5.40
2023-02-17T14:29:43.484Z,5.77
2023-02-17T14:32:33.241Z,5.17
2023-02-17T14:35:11.192Z,3.77
2023-02-17T14:37:39.761Z,3.30
2023-02-17T14:40:16.641Z,4.10
2023-02-17T14:42:50.261Z,4.40
2023-02-17T14:45:18.026Z,4.63
2023-02-17T14:47:45.955Z,4.83
2023-02-17T14:50:13.798Z,4.30
2023-02-17T14:52:43.334Z,2.70
2023-02-17T14:55:16.402Z,2.70
2023-02-17T14:57:44.940Z,2.73
2023-02-17T15:00:13.968Z,3.93
2023-02-17T15:02:41.638Z,3.10
2023-02-17T15:05:09.523Z,2.43
2023-02-17T15:07:37.416Z,2.40
2023-02-17T15:10:11.700Z,3.10
2023-02-17T15:12:40.768Z,4.67
2023-02-17T15:15:10.896Z,2.70
2023-02-17T15:17:38.605Z,4.13
2023-02-17T15:20:08.822Z,2.57
2023-02-17T15:22:38.168Z,4.10
2023-02-17T15:25:12.950Z,3.83
2023-02-17T15:27:42.057Z,3.60
2023-02-17T15:30:12.124Z,4.97
2023-02-17T15:32:39.855Z,3.87
2023-02-17T15:35:15.919Z,4.53
2023-02-17T15:37:43.610Z,3.40
2023-02-17T15:40:15.127Z,3.97
2023-02-17T15:42:44.760Z,6.40
2023-02-17T15:45:14.574Z,3.70
2023-02-17T15:47:42.595Z,3.60
2023-02-17T15:50:22.911Z,4.00
2023-02-17T15:52:51.766Z,3.33
2023-02-17T15:55:19.663Z,3.40
2023-02-17T15:57:49.628Z,5.03
2023-02-17T16:00:22.501Z,4.60
2023-02-17T16:02:50.450Z,4.13
2023-02-17T16:05:19.266Z,4.53
2023-02-17T16:07:46.933Z,4.70
2023-02-17T16:10:15.978Z,4.93
2023-02-17T16:12:43.873Z,4.83
2023-02-17T16:15:14.782Z,4.50
2023-02-17T16:17:42.517Z,4.77
2023-02-17T16:20:21.826Z,4.80
2023-02-17T16:22:49.594Z,4.67
2023-02-17T16:25:17.732Z,5.20
2023-02-17T16:27:46.184Z,5.87
2023-02-17T16:30:17.755Z,4.20
2023-02-17T16:32:45.594Z,4.53
2023-02-17T16:35:17.337Z,5.13
2023-02-17T16:37:48.513Z,4.87
2023-02-17T16:40:16.945Z,4.40
2023-02-17T16:42:48.968Z,5.40
2023-02-17T16:45:18.965Z,6.50
2023-02-17T16:47:48.319Z,4.60
2023-02-17T16:50:23.413Z,5.27
2023-02-17T16:52:51.396Z,5.30
2023-02-17T16:55:19.432Z,5.03
2023-02-17T16:57:48.866Z,5.40
2023-02-17T17:00:20.226Z,5.27
2023-02-17T17:02:48.151Z,5.43
2023-02-17T17:05:16.519Z,5.03
2023-02-17T17:07:44.206Z,5.43
2023-02-17T17:10:17.071Z,5.37
2023-02-17T17:12:45.156Z,4.80
2023-02-17T17:15:12.877Z,5.17
2023-02-17T17:17:43.836Z,4.83
2023-02-17T17:22:41.705Z,5.10
2023-02-17T17:25:09.508Z,5.40
2023-02-17T17:27:37.981Z,6.97
2023-02-17T17:30:06.965Z,7.23
2023-02-17T17:32:34.711Z,6.20
2023-02-17T17:35:03.974Z,6.17
2023-02-17T17:37:31.699Z,6.47
2023-02-17T17:39:59.526Z,6.73
2023-02-17T17:42:27.281Z,6.60
2023-02-17T17:44:55.171Z,5.60
2023-02-17T17:47:29.838Z,6.37
2023-02-17T17:49:58.407Z,6.80
2023-02-17T17:52:27.902Z,8.03
2023-02-17T17:54:55.618Z,8.33
2023-02-17T17:57:23.573Z,9.53
2023-02-17T17:59:51.451Z,10.00
2023-02-17T18:02:20.509Z,11.30
2023-02-17T18:04:50.725Z,6.90
2023-02-17T18:07:18.923Z,6.03
2023-02-17T18:09:48.031Z,6.87
2023-02-17T18:12:17.126Z,7.23
2023-02-17T18:14:45.081Z,7.00
2023-02-17T18:17:13.228Z,6.73
2023-02-17T18:19:41.011Z,7.83
2023-02-17T18:22:08.851Z,7.40
2023-02-17T18:24:36.714Z,7.20
2023-02-17T18:27:07.768Z,7.70
2023-02-17T18:29:43.434Z,6.47
2023-02-17T18:32:11.280Z,7.50
2023-02-17T18:34:38.999Z,8.47
2023-02-17T18:37:08.142Z,8.07
2023-02-17T18:39:40.116Z,7.50
2023-02-17T18:42:10.300Z,7.97
2023-02-17T18:44:38.144Z,7.13
2023-02-17T18:47:05.976Z,7.73
2023-02-17T18:49:33.668Z,7.80
2023-02-17T18:52:03.782Z,7.23
2023-02-17T18:54:37.035Z,8.30
2023-02-17T18:57:04.915Z,7.20
2023-02-17T18:59:34.653Z,7.27
2023-02-17T19:02:07.339Z,8.33
2023-02-17T19:04:36.164Z,7.07
2023-02-17T19:07:06.113Z,7.03
2023-02-17T19:09:33.959Z,7.10
2023-02-17T19:12:49.568Z,6.80
2023-02-17T19:15:20.879Z,7.23
2023-02-17T19:17:48.672Z,7.73
2023-02-17T19:20:17.105Z,7.73
2023-02-17T19:22:45.211Z,7.70
2023-02-17T19:25:13.926Z,7.97
2023-02-17T19:27:42.627Z,7.23
2023-02-17T19:30:11.107Z,8.73
2023-02-17T19:32:40.466Z,7.57
2023-02-17T19:35:11.272Z,7.63
2023-02-17T19:37:39.502Z,7.73
2023-02-17T19:40:09.543Z,8.30
2023-02-17T19:42:37.633Z,7.80
2023-02-17T19:45:06.061Z,8.67
2023-02-17T19:47:33.902Z,8.10
2023-02-17T19:50:02.985Z,6.83
2023-02-17T19:52:30.658Z,7.40
2023-02-17T19:54:59.585Z,8.90
2023-02-17T19:57:28.475Z,8.17
2023-02-17T19:59:56.218Z,7.97
2023-02-17T20:02:23.947Z,8.23
2023-02-17T20:04:52.859Z,8.13
2023-02-17T20:07:23.369Z,8.63
2023-02-17T20:09:51.115Z,8.30
2023-02-17T20:12:18.879Z,8.63
2023-02-17T20:14:46.749Z,8.93
2023-02-17T20:17:14.558Z,9.00
2023-02-17T20:19:51.368Z,8.93
2023-02-17T20:22:19.110Z,8.97
2023-02-17T20:24:48.602Z,9.10
2023-02-17T20:27:16.283Z,10.27
2023-02-17T20:29:44.088Z,8.63
2023-02-17T20:32:11.989Z,9.20
2023-02-17T20:34:40.354Z,9.37
2023-02-17T20:37:08.235Z,9.73
2023-02-17T20:39:36.472Z,10.37
2023-02-17T20:42:05.713Z,9.57
2023-02-17T20:44:33.436Z,10.07
2023-02-17T20:47:01.339Z,8.90
2023-02-17T20:49:31.479Z,9.77
2023-02-17T20:51:59.246Z,10.93
2023-02-17T20:54:27.074Z,10.90
2023-02-17T20:56:57.528Z,9.77
2023-02-17T20:59:26.574Z,10.53
2023-02-17T21:01:55.594Z,10.60
2023-02-17T21:04:23.280Z,9.90
2023-02-17T21:06:51.810Z,14.93
2023-02-17T21:09:20.091Z,11.43
2023-02-17T21:11:47.905Z,12.07
2023-02-17T21:14:15.632Z,12.37
2023-02-17T21:16:45.224Z,12.93
2023-02-17T21:19:12.956Z,11.53
2023-02-17T21:21:41.004Z,13.40
2023-02-17T21:24:08.950Z,12.80
2023-02-17T21:26:37.022Z,11.70
2023-02-17T21:29:04.780Z,11.73
2023-02-17T21:31:32.686Z,11.60
2023-02-17T21:34:01.933Z,14.07
2023-02-17T21:36:29.761Z,11.97
2023-02-17T21:38:57.575Z,12.03
2023-02-17T21:41:26.450Z,11.73
2023-02-17T21:44:12.871Z,10.47
2023-02-17T21:46:43.015Z,10.67
2023-02-17T21:49:13.704Z,11.70
2023-02-17T21:51:41.569Z,11.50
2023-02-17T21:54:09.477Z,11.93
2023-02-17T21:56:37.423Z,12.33
2023-02-17T21:59:05.291Z,12.07
2023-02-17T22:01:33.163Z,11.57
2023-02-17T22:04:01.151Z,11.43
2023-02-17T22:06:33.596Z,11.40
2023-02-17T22:09:01.347Z,11.40
2023-02-17T22:11:30.044Z,11.67
2023-02-17T22:13:58.142Z,11.60
2023-02-17T22:16:27.695Z,11.83
2023-02-17T22:18:55.489Z,11.90
2023-02-17T22:21:23.202Z,11.77
2023-02-17T22:23:52.501Z,12.30
2023-02-17T22:26:21.570Z,11.50
2023-02-17T22:28:49.484Z,11.87
2023-02-17T22:31:19.130Z,11.57
2023-02-17T22:33:46.949Z,13.03
2023-02-17T22:36:16.032Z,11.53
2023-02-17T22:38:43.809Z,12.00
2023-02-17T22:41:13.857Z,15.43
2023-02-17T22:43:42.058Z,12.90
2023-02-17T22:46:10.632Z,13.30
2023-02-17T22:48:39.223Z,12.37
2023-02-17T22:51:07.432Z,12.27
2023-02-17T22:53:35.287Z,12.17
2023-02-17T22:56:03.122Z,12.57
2023-02-17T22:58:32.325Z,12.67
2023-02-17T23:01:04.209Z,12.70
2023-02-17T23:03:32.053Z,12.27
2023-02-17T23:06:02.816Z,12.30
2023-02-17T23:08:30.698Z,12.43
2023-02-17T23:10:58.363Z,13.53
2023-02-17T23:13:26.161Z,12.70
2023-02-17T23:15:55.237Z,12.20
2023-02-17T23:18:23.466Z,12.50
2023-02-17T23:20:51.666Z,12.33
2023-02-17T23:23:19.670Z,12.80
2023-02-17T23:25:49.385Z,13.23
2023-02-17T23:28:17.608Z,13.03
2023-02-17T23:30:46.809Z,13.37
2023-02-17T23:33:16.183Z,12.93
2023-02-17T23:35:45.018Z,12.33
2023-02-17T23:38:12.994Z,13.87
2023-02-17T23:40:40.753Z,13.90
2023-02-17T23:43:08.727Z,13.57
2023-02-17T23:45:37.985Z,14.47
2023-02-17T23:48:06.855Z,14.27
2023-02-17T23:50:35.881Z,13.67
2023-02-17T23:53:03.672Z,14.77
2023-02-17T23:55:31.423Z,13.13
2023-02-17T23:58:00.582Z,13.97
